sensor_id;sensor_type;location;lat;lon;timestamp;temperature;humidity
32334;DHT22;18810;53.040;8.850;2022-09-27T00:01:16;11.30;99.90
32334;DHT22;18810;53.040;8.850;2022-09-27T00:03:42;11.30;99.90
32334;DHT22;18810;53.040;8.850;2022-09-27T00:06:14;11.40;99.90
32334;DHT22;18810;53.040;8.850;2022-09-27T00:08:40;11.40;99.90
32334;DHT22;18810;53.040;8.850;2022-09-27T00:11:11;11.40;99.90
32334;DHT22;18810;53.040;8.850;2022-09-27T00:13:39;11.50;99.90
32334;DHT22;18810;53.040;8.850;2022-09-27T00:16:05;11.50;99.90
32334;DHT22;18810;53.040;8.850;2022-09-27T00:18:32;11.40;99.90
32334;DHT22;18810;53.040;8.850;2022-09-27T00:21:10;11.40;99.90
32334;DHT22;18810;53.040;8.850;2022-09-27T00:23:37;11.50;99.90
32334;DHT22;18810;53.040;8.850;2022-09-27T00:26:03;11.50;99.90
32334;DHT22;18810;53.040;8.850;2022-09-27T00:28:31;11.40;99.90
32334;DHT22;18810;53.040;8.850;2022-09-27T00:30:57;11.40;99.90
32334;DHT22;18810;53.040;8.850;2022-09-27T00:33:24;11.50;99.90
32334;DHT22;18810;53.040;8.850;2022-09-27T00:35:50;11.50;99.90
32334;DHT22;18810;53.040;8.850;2022-09-27T00:38:16;11.50;99.90
32334;DHT22;18810;53.040;8.850;2022-09-27T00:40:41;11.50;99.90
32334;DHT22;18810;53.040;8.850;2022-09-27T00:43:22;11.50;99.90
32334;DHT22;18810;53.040;8.850;2022-09-27T00:45:58;11.50;99.90
32334;DHT22;18810;53.040;8.850;2022-09-27T00:48:30;11.50;99.90
32334;DHT22;18810;53.040;8.850;2022-09-27T00:50:59;11.50;99.90
32334;DHT22;18810;53.040;8.850;2022-09-27T00:53:37;11.50;99.90
32334;DHT22;18810;53.040;8.850;2022-09-27T00:56:13;11.50;99.90
32334;DHT22;18810;53.040;8.850;2022-09-27T00:58:45;11.50;99.90
32334;DHT22;18810;53.040;8.850;2022-09-27T01:06:05;11.60;99.90
32334;DHT22;18810;53.040;8.850;2022-09-27T01:08:36;11.60;99.90
32334;DHT22;18810;53.040;8.850;2022-09-27T01:19:49;11.60;99.90
32334;DHT22;18810;53.040;8.850;2022-09-27T01:30:36;11.60;99.90
32334;DHT22;18810;53.040;8.850;2022-09-27T01:41:32;11.50;99.90
32334;DHT22;18810;53.040;8.850;2022-09-27T01:44:36;11.50;99.90
32334;DHT22;18810;53.040;8.850;2022-09-27T01:47:22;11.50;99.90
32334;DHT22;18810;53.040;8.850;2022-09-27T01:52:30;11.40;99.90
32334;DHT22;18810;53.040;8.850;2022-09-27T01:54:59;11.40;99.90
32334;DHT22;18810;53.040;8.850;2022-09-27T01:57:33;11.50;99.90
32334;DHT22;18810;53.040;8.850;2022-09-27T02:00:08;11.40;99.90
32334;DHT22;18810;53.040;8.850;2022-09-27T02:02:52;11.40;99.90
32334;DHT22;18810;53.040;8.850;2022-09-27T02:05:20;11.40;99.90
32334;DHT22;18810;53.040;8.850;2022-09-27T02:08:01;11.40;99.90
32334;DHT22;18810;53.040;8.850;2022-09-27T02:10:34;11.50;99.90
32334;DHT22;18810;53.040;8.850;2022-09-27T02:13:21;11.50;99.90
32334;DHT22;18810;53.040;8.850;2022-09-27T02:18:19;11.30;99.90
32334;DHT22;18810;53.040;8.850;2022-09-27T02:20:55;11.30;99.90
32334;DHT22;18810;53.040;8.850;2022-09-27T02:26:19;11.30;99.90
32334;DHT22;18810;53.040;8.850;2022-09-27T02:29:15;11.20;99.90
32334;DHT22;18810;53.040;8.850;2022-09-27T02:31:42;11.20;99.90
32334;DHT22;18810;53.040;8.850;2022-09-27T02:34:21;11.30;99.90
32334;DHT22;18810;53.040;8.850;2022-09-27T02:36:47;11.40;99.90
32334;DHT22;18810;53.040;8.850;2022-09-27T02:39:15;11.30;99.90
32334;DHT22;18810;53.040;8.850;2022-09-27T02:41:41;11.20;99.90
32334;DHT22;18810;53.040;8.850;2022-09-27T02:44:09;11.20;99.90
32334;DHT22;18810;53.040;8.850;2022-09-27T03:00:07;11.10;99.90
32334;DHT22;18810;53.040;8.850;2022-09-27T03:02:41;11.10;99.90
32334;DHT22;18810;53.040;8.850;2022-09-27T03:05:23;11.00;99.90
32334;DHT22;18810;53.040;8.850;2022-09-27T03:07:49;11.00;99.90
32334;DHT22;18810;53.040;8.850;2022-09-27T03:10:18;11.10;99.90
32334;DHT22;18810;53.040;8.850;2022-09-27T03:12:44;10.90;99.90
32334;DHT22;18810;53.040;8.850;2022-09-27T03:15:09;10.90;99.90
32334;DHT22;18810;53.040;8.850;2022-09-27T03:17:35;11.00;99.90
32334;DHT22;18810;53.040;8.850;2022-09-27T03:20:01;10.90;99.90
32334;DHT22;18810;53.040;8.850;2022-09-27T03:22:27;10.90;99.90
32334;DHT22;18810;53.040;8.850;2022-09-27T03:24:53;11.00;99.90
32334;DHT22;18810;53.040;8.850;2022-09-27T03:27:18;11.00;99.90
32334;DHT22;18810;53.040;8.850;2022-09-27T03:29:44;10.90;99.90
32334;DHT22;18810;53.040;8.850;2022-09-27T03:32:10;10.90;99.90
32334;DHT22;18810;53.040;8.850;2022-09-27T03:34:35;10.80;99.90
32334;DHT22;18810;53.040;8.850;2022-09-27T03:37:01;10.70;99.90
32334;DHT22;18810;53.040;8.850;2022-09-27T03:39:27;10.70;99.90
32334;DHT22;18810;53.040;8.850;2022-09-27T03:41:52;10.80;99.90
32334;DHT22;18810;53.040;8.850;2022-09-27T03:44:18;10.70;99.90
32334;DHT22;18810;53.040;8.850;2022-09-27T03:46:44;10.70;99.90
32334;DHT22;18810;53.040;8.850;2022-09-27T03:49:10;10.70;99.90
32334;DHT22;18810;53.040;8.850;2022-09-27T03:51:35;10.80;99.90
32334;DHT22;18810;53.040;8.850;2022-09-27T03:54:01;10.70;99.90
32334;DHT22;18810;53.040;8.850;2022-09-27T03:56:28;10.70;99.90
32334;DHT22;18810;53.040;8.850;2022-09-27T03:58:53;10.70;99.90
32334;DHT22;18810;53.040;8.850;2022-09-27T04:01:19;10.70;99.90
32334;DHT22;18810;53.040;8.850;2022-09-27T04:03:45;10.60;99.90
32334;DHT22;18810;53.040;8.850;2022-09-27T04:06:11;10.60;99.90
32334;DHT22;18810;53.040;8.850;2022-09-27T04:08:36;10.60;99.90
32334;DHT22;18810;53.040;8.850;2022-09-27T04:11:02;10.60;99.90
32334;DHT22;18810;53.040;8.850;2022-09-27T04:13:28;10.60;99.90
32334;DHT22;18810;53.040;8.850;2022-09-27T04:15:54;10.70;99.90
32334;DHT22;18810;53.040;8.850;2022-09-27T04:18:20;10.70;99.90
32334;DHT22;18810;53.040;8.850;2022-09-27T04:20:46;10.70;99.90
32334;DHT22;18810;53.040;8.850;2022-09-27T04:23:11;10.70;99.90
32334;DHT22;18810;53.040;8.850;2022-09-27T04:25:37;10.70;99.90
32334;DHT22;18810;53.040;8.850;2022-09-27T04:28:04;10.70;99.90
32334;DHT22;18810;53.040;8.850;2022-09-27T04:30:31;10.60;99.90
32334;DHT22;18810;53.040;8.850;2022-09-27T04:32:56;10.60;99.90
32334;DHT22;18810;53.040;8.850;2022-09-27T04:35:22;10.60;99.90
32334;DHT22;18810;53.040;8.850;2022-09-27T04:38:06;10.60;99.90
32334;DHT22;18810;53.040;8.850;2022-09-27T04:40:35;10.70;99.90
32334;DHT22;18810;53.040;8.850;2022-09-27T04:43:01;10.70;99.90
32334;DHT22;18810;53.040;8.850;2022-09-27T04:45:29;10.60;99.90
32334;DHT22;18810;53.040;8.850;2022-09-27T04:47:55;10.70;99.90
32334;DHT22;18810;53.040;8.850;2022-09-27T04:50:20;10.70;99.90
32334;DHT22;18810;53.040;8.850;2022-09-27T04:52:50;10.60;99.90
32334;DHT22;18810;53.040;8.850;2022-09-27T04:55:17;10.60;99.90
32334;DHT22;18810;53.040;8.850;2022-09-27T04:57:43;10.60;99.90
32334;DHT22;18810;53.040;8.850;2022-09-27T05:00:09;10.50;99.90
32334;DHT22;18810;53.040;8.850;2022-09-27T05:02:35;10.50;99.90
32334;DHT22;18810;53.040;8.850;2022-09-27T05:05:01;10.50;99.90
32334;DHT22;18810;53.040;8.850;2022-09-27T05:07:27;10.50;99.90
32334;DHT22;18810;53.040;8.850;2022-09-27T05:09:54;10.50;99.90
32334;DHT22;18810;53.040;8.850;2022-09-27T05:12:20;10.50;99.90
32334;DHT22;18810;53.040;8.850;2022-09-27T05:14:46;10.50;99.90
32334;DHT22;18810;53.040;8.850;2022-09-27T05:17:12;10.60;99.90
32334;DHT22;18810;53.040;8.850;2022-09-27T05:19:38;10.60;99.90
32334;DHT22;18810;53.040;8.850;2022-09-27T05:22:07;10.50;99.90
32334;DHT22;18810;53.040;8.850;2022-09-27T05:24:33;10.50;99.90
32334;DHT22;18810;53.040;8.850;2022-09-27T05:26:59;10.60;99.90
32334;DHT22;18810;53.040;8.850;2022-09-27T05:29:25;10.50;99.90
32334;DHT22;18810;53.040;8.850;2022-09-27T05:31:51;10.50;99.90
32334;DHT22;18810;53.040;8.850;2022-09-27T05:34:17;10.50;99.90
32334;DHT22;18810;53.040;8.850;2022-09-27T05:36:48;10.40;99.90
32334;DHT22;18810;53.040;8.850;2022-09-27T05:39:13;10.50;99.90
32334;DHT22;18810;53.040;8.850;2022-09-27T05:41:42;10.40;99.90
32334;DHT22;18810;53.040;8.850;2022-09-27T05:44:08;10.30;99.90
32334;DHT22;18810;53.040;8.850;2022-09-27T05:46:33;10.30;99.90
32334;DHT22;18810;53.040;8.850;2022-09-27T05:48:59;10.40;99.90
32334;DHT22;18810;53.040;8.850;2022-09-27T05:51:25;10.40;99.90
32334;DHT22;18810;53.040;8.850;2022-09-27T05:53:51;10.50;99.90
32334;DHT22;18810;53.040;8.850;2022-09-27T05:56:17;10.50;99.90
32334;DHT22;18810;53.040;8.850;2022-09-27T05:58:42;10.50;99.90
32334;DHT22;18810;53.040;8.850;2022-09-27T06:01:09;10.60;99.90
32334;DHT22;18810;53.040;8.850;2022-09-27T06:03:35;10.60;99.90
32334;DHT22;18810;53.040;8.850;2022-09-27T06:06:02;10.60;99.90
32334;DHT22;18810;53.040;8.850;2022-09-27T06:08:32;10.60;99.90
32334;DHT22;18810;53.040;8.850;2022-09-27T06:11:03;10.60;99.90
32334;DHT22;18810;53.040;8.850;2022-09-27T06:13:30;10.60;99.90
32334;DHT22;18810;53.040;8.850;2022-09-27T06:15:57;10.60;99.90
32334;DHT22;18810;53.040;8.850;2022-09-27T06:18:24;10.80;99.90
32334;DHT22;18810;53.040;8.850;2022-09-27T06:20:50;10.80;99.90
32334;DHT22;18810;53.040;8.850;2022-09-27T06:23:18;10.80;99.90
32334;DHT22;18810;53.040;8.850;2022-09-27T06:25:45;10.80;99.90
32334;DHT22;18810;53.040;8.850;2022-09-27T06:28:11;10.90;99.90
32334;DHT22;18810;53.040;8.850;2022-09-27T06:30:43;10.90;99.90
32334;DHT22;18810;53.040;8.850;2022-09-27T06:33:18;10.80;99.90
32334;DHT22;18810;53.040;8.850;2022-09-27T06:35:45;10.80;99.90
32334;DHT22;18810;53.040;8.850;2022-09-27T06:38:13;10.80;99.90
32334;DHT22;18810;53.040;8.850;2022-09-27T06:40:41;10.70;99.90
32334;DHT22;18810;53.040;8.850;2022-09-27T06:43:11;10.70;99.90
32334;DHT22;18810;53.040;8.850;2022-09-27T06:45:37;10.80;99.90
32334;DHT22;18810;53.040;8.850;2022-09-27T06:48:05;10.90;99.90
32334;DHT22;18810;53.040;8.850;2022-09-27T06:50:34;10.90;99.90
32334;DHT22;18810;53.040;8.850;2022-09-27T06:53:00;11.00;99.90
32334;DHT22;18810;53.040;8.850;2022-09-27T06:55:26;11.00;99.90
32334;DHT22;18810;53.040;8.850;2022-09-27T06:57:56;11.10;99.90
32334;DHT22;18810;53.040;8.850;2022-09-27T07:00:40;11.20;99.90
32334;DHT22;18810;53.040;8.850;2022-09-27T07:03:11;11.20;99.90
32334;DHT22;18810;53.040;8.850;2022-09-27T07:05:38;11.40;99.90
32334;DHT22;18810;53.040;8.850;2022-09-27T07:08:04;11.40;99.90
32334;DHT22;18810;53.040;8.850;2022-09-27T07:10:32;11.40;99.90
32334;DHT22;18810;53.040;8.850;2022-09-27T07:13:09;11.40;99.90
32334;DHT22;18810;53.040;8.850;2022-09-27T07:15:40;11.40;99.90
32334;DHT22;18810;53.040;8.850;2022-09-27T07:18:06;11.50;99.90
32334;DHT22;18810;53.040;8.850;2022-09-27T07:20:33;11.60;99.90
32334;DHT22;18810;53.040;8.850;2022-09-27T07:23:09;11.50;99.90
32334;DHT22;18810;53.040;8.850;2022-09-27T07:25:35;11.50;99.90
32334;DHT22;18810;53.040;8.850;2022-09-27T07:28:05;11.40;99.90
32334;DHT22;18810;53.040;8.850;2022-09-27T07:30:32;11.30;99.90
32334;DHT22;18810;53.040;8.850;2022-09-27T07:33:03;11.40;99.90
32334;DHT22;18810;53.040;8.850;2022-09-27T07:35:29;11.40;99.90
32334;DHT22;18810;53.040;8.850;2022-09-27T07:37:56;11.50;99.90
32334;DHT22;18810;53.040;8.850;2022-09-27T07:40:22;11.70;99.90
32334;DHT22;18810;53.040;8.850;2022-09-27T07:42:54;11.70;99.90
32334;DHT22;18810;53.040;8.850;2022-09-27T07:45:19;11.70;99.90
32334;DHT22;18810;53.040;8.850;2022-09-27T07:47:45;11.80;99.90
32334;DHT22;18810;53.040;8.850;2022-09-27T07:50:12;12.10;99.90
32334;DHT22;18810;53.040;8.850;2022-09-27T07:52:45;11.80;99.90
32334;DHT22;18810;53.040;8.850;2022-09-27T07:55:13;11.90;99.90
32334;DHT22;18810;53.040;8.850;2022-09-27T07:57:39;12.00;99.90
32334;DHT22;18810;53.040;8.850;2022-09-27T08:00:09;11.90;99.90
32334;DHT22;18810;53.040;8.850;2022-09-27T08:02:35;11.70;99.90
32334;DHT22;18810;53.040;8.850;2022-09-27T08:05:02;11.70;99.90
32334;DHT22;18810;53.040;8.850;2022-09-27T08:07:28;11.60;99.90
32334;DHT22;18810;53.040;8.850;2022-09-27T08:09:54;11.60;99.90
32334;DHT22;18810;53.040;8.850;2022-09-27T08:12:21;11.70;99.90
32334;DHT22;18810;53.040;8.850;2022-09-27T08:14:47;11.80;99.90
32334;DHT22;18810;53.040;8.850;2022-09-27T08:17:13;11.80;99.90
32334;DHT22;18810;53.040;8.850;2022-09-27T08:19:39;11.80;99.90
32334;DHT22;18810;53.040;8.850;2022-09-27T08:22:06;11.90;99.90
32334;DHT22;18810;53.040;8.850;2022-09-27T08:24:32;11.90;99.90
32334;DHT22;18810;53.040;8.850;2022-09-27T08:26:58;11.90;99.90
32334;DHT22;18810;53.040;8.850;2022-09-27T08:29:24;11.80;99.90
32334;DHT22;18810;53.040;8.850;2022-09-27T08:31:51;11.80;99.90
32334;DHT22;18810;53.040;8.850;2022-09-27T08:34:19;11.80;99.90
32334;DHT22;18810;53.040;8.850;2022-09-27T08:36:44;11.80;99.90
32334;DHT22;18810;53.040;8.850;2022-09-27T08:39:10;11.70;99.90
32334;DHT22;18810;53.040;8.850;2022-09-27T08:52:46;12.40;99.90
32334;DHT22;18810;53.040;8.850;2022-09-27T08:55:30;12.40;99.90
32334;DHT22;18810;53.040;8.850;2022-09-27T08:57:57;12.40;99.90
32334;DHT22;18810;53.040;8.850;2022-09-27T09:00:24;12.40;99.90
32334;DHT22;18810;53.040;8.850;2022-09-27T09:02:52;12.30;99.90
32334;DHT22;18810;53.040;8.850;2022-09-27T09:05:33;12.30;99.90
32334;DHT22;18810;53.040;8.850;2022-09-27T09:08:22;12.50;99.90
32334;DHT22;18810;53.040;8.850;2022-09-27T09:11:02;12.50;99.90
32334;DHT22;18810;53.040;8.850;2022-09-27T09:14:18;12.30;99.90
32334;DHT22;18810;53.040;8.850;2022-09-27T09:20:20;12.10;99.90
32334;DHT22;18810;53.040;8.850;2022-09-27T09:30:54;11.80;99.90
32334;DHT22;18810;53.040;8.850;2022-09-27T09:33:31;11.90;99.90
32334;DHT22;18810;53.040;8.850;2022-09-27T09:38:51;12.00;99.90
32334;DHT22;18810;53.040;8.850;2022-09-27T09:41:28;12.10;99.90
32334;DHT22;18810;53.040;8.850;2022-09-27T09:46:51;11.90;99.90
32334;DHT22;18810;53.040;8.850;2022-09-27T09:52:00;12.00;99.90
32334;DHT22;18810;53.040;8.850;2022-09-27T09:54:41;12.10;99.90
32334;DHT22;18810;53.040;8.850;2022-09-27T09:57:20;12.00;99.90
32334;DHT22;18810;53.040;8.850;2022-09-27T09:59:58;12.00;99.90
32334;DHT22;18810;53.040;8.850;2022-09-27T10:02:32;12.10;99.90
32334;DHT22;18810;53.040;8.850;2022-09-27T10:05:00;12.00;99.90
32334;DHT22;18810;53.040;8.850;2022-09-27T10:09:54;11.90;99.90
32334;DHT22;18810;53.040;8.850;2022-09-27T10:12:21;12.00;99.90
32334;DHT22;18810;53.040;8.850;2022-09-27T10:14:48;11.80;99.90
32334;DHT22;18810;53.040;8.850;2022-09-27T10:17:24;11.60;99.90
32334;DHT22;18810;53.040;8.850;2022-09-27T10:19:50;11.70;99.90
32334;DHT22;18810;53.040;8.850;2022-09-27T10:25:15;11.70;99.90
32334;DHT22;18810;53.040;8.850;2022-09-27T10:27:47;11.60;99.90
32334;DHT22;18810;53.040;8.850;2022-09-27T10:30:34;11.70;99.90
32334;DHT22;18810;53.040;8.850;2022-09-27T10:33:04;11.60;99.90
32334;DHT22;18810;53.040;8.850;2022-09-27T10:40:45;11.80;99.90
32334;DHT22;18810;53.040;8.850;2022-09-27T10:43:33;11.80;99.90
32334;DHT22;18810;53.040;8.850;2022-09-27T10:48:35;11.90;99.90
32334;DHT22;18810;53.040;8.850;2022-09-27T10:51:06;12.00;99.90
32334;DHT22;18810;53.040;8.850;2022-09-27T10:53:34;12.10;99.90
32334;DHT22;18810;53.040;8.850;2022-09-27T10:56:01;12.20;99.90
32334;DHT22;18810;53.040;8.850;2022-09-27T10:58:31;12.20;99.90
32334;DHT22;18810;53.040;8.850;2022-09-27T11:01:03;12.20;99.90
32334;DHT22;18810;53.040;8.850;2022-09-27T11:03:31;12.30;99.90
32334;DHT22;18810;53.040;8.850;2022-09-27T11:05:57;12.30;99.90
32334;DHT22;18810;53.040;8.850;2022-09-27T11:08:32;12.20;99.90
32334;DHT22;18810;53.040;8.850;2022-09-27T11:11:45;12.10;99.90
32334;DHT22;18810;53.040;8.850;2022-09-27T11:14:19;12.10;99.90
32334;DHT22;18810;53.040;8.850;2022-09-27T11:25:26;12.10;99.90
32334;DHT22;18810;53.040;8.850;2022-09-27T11:39:15;11.90;99.90
32334;DHT22;18810;53.040;8.850;2022-09-27T11:50:20;12.20;99.90
32334;DHT22;18810;53.040;8.850;2022-09-27T11:58:55;12.40;99.90
32334;DHT22;18810;53.040;8.850;2022-09-27T12:01:34;12.30;99.90
32334;DHT22;18810;53.040;8.850;2022-09-27T12:07:16;12.30;99.90
32334;DHT22;18810;53.040;8.850;2022-09-27T12:09:47;12.40;99.90
32334;DHT22;18810;53.040;8.850;2022-09-27T12:12:21;12.40;99.90
32334;DHT22;18810;53.040;8.850;2022-09-27T12:14:55;12.50;99.90
32334;DHT22;18810;53.040;8.850;2022-09-27T12:17:37;10.40;99.90
32334;DHT22;18810;53.040;8.850;2022-09-27T12:23:06;12.20;99.90
32334;DHT22;18810;53.040;8.850;2022-09-27T12:25:38;12.20;99.90
32334;DHT22;18810;53.040;8.850;2022-09-27T12:28:15;12.40;99.90
32334;DHT22;18810;53.040;8.850;2022-09-27T12:30:52;12.50;99.90
32334;DHT22;18810;53.040;8.850;2022-09-27T12:33:38;12.40;99.90
32334;DHT22;18810;53.040;8.850;2022-09-27T12:36:11;12.60;99.90
32334;DHT22;18810;53.040;8.850;2022-09-27T12:38:44;12.50;99.90
32334;DHT22;18810;53.040;8.850;2022-09-27T12:41:14;12.70;99.90
32334;DHT22;18810;53.040;8.850;2022-09-27T12:43:43;12.70;99.90
32334;DHT22;18810;53.040;8.850;2022-09-27T12:46:32;12.50;99.90
32334;DHT22;18810;53.040;8.850;2022-09-27T12:49:26;12.40;99.90
32334;DHT22;18810;53.040;8.850;2022-09-27T12:52:03;12.50;99.90
32334;DHT22;18810;53.040;8.850;2022-09-27T12:54:57;12.40;99.90
32334;DHT22;18810;53.040;8.850;2022-09-27T13:09:13;12.30;99.90
32334;DHT22;18810;53.040;8.850;2022-09-27T13:14:18;12.40;99.90
32334;DHT22;18810;53.040;8.850;2022-09-27T13:16:46;12.40;99.90
32334;DHT22;18810;53.040;8.850;2022-09-27T13:22:04;12.40;99.90
32334;DHT22;18810;53.040;8.850;2022-09-27T13:32:32;12.80;99.90
32334;DHT22;18810;53.040;8.850;2022-09-27T13:35:45;12.90;99.90
32334;DHT22;18810;53.040;8.850;2022-09-27T13:38:03;12.90;99.90
32334;DHT22;18810;53.040;8.850;2022-09-27T13:40:39;12.80;99.90
32334;DHT22;18810;53.040;8.850;2022-09-27T13:45:57;12.80;99.90
32334;DHT22;18810;53.040;8.850;2022-09-27T13:49:12;12.80;99.90
32334;DHT22;18810;53.040;8.850;2022-09-27T13:57:00;12.50;99.90
32334;DHT22;18810;53.040;8.850;2022-09-27T13:59:38;12.50;99.90
32334;DHT22;18810;53.040;8.850;2022-09-27T14:02:20;12.40;99.90
32334;DHT22;18810;53.040;8.850;2022-09-27T14:04:49;12.30;99.90
32334;DHT22;18810;53.040;8.850;2022-09-27T14:07:18;12.10;99.90
32334;DHT22;18810;53.040;8.850;2022-09-27T14:09:52;12.00;99.90
32334;DHT22;18810;53.040;8.850;2022-09-27T14:12:20;13.50;99.90
32334;DHT22;18810;53.040;8.850;2022-09-27T14:14:48;12.20;99.90
32334;DHT22;18810;53.040;8.850;2022-09-27T14:17:15;12.30;99.90
32334;DHT22;18810;53.040;8.850;2022-09-27T14:19:42;12.40;99.90
32334;DHT22;18810;53.040;8.850;2022-09-27T14:27:14;12.40;99.90
32334;DHT22;18810;53.040;8.850;2022-09-27T14:30:15;12.40;99.90
32334;DHT22;18810;53.040;8.850;2022-09-27T14:32:48;12.40;99.90
32334;DHT22;18810;53.040;8.850;2022-09-27T14:35:19;12.20;99.90
32334;DHT22;18810;53.040;8.850;2022-09-27T14:38:10;12.10;99.90
32334;DHT22;18810;53.040;8.850;2022-09-27T14:40:58;12.00;99.90
32334;DHT22;18810;53.040;8.850;2022-09-27T14:43:25;12.10;99.90
32334;DHT22;18810;53.040;8.850;2022-09-27T14:46:05;12.00;99.90
32334;DHT22;18810;53.040;8.850;2022-09-27T14:48:35;12.00;99.90
32334;DHT22;18810;53.040;8.850;2022-09-27T14:51:03;12.00;99.90
32334;DHT22;18810;53.040;8.850;2022-09-27T14:53:32;12.00;99.90
32334;DHT22;18810;53.040;8.850;2022-09-27T14:55:59;12.10;99.90
32334;DHT22;18810;53.040;8.850;2022-09-27T14:58:25;12.10;99.90
32334;DHT22;18810;53.040;8.850;2022-09-27T15:00:52;12.10;99.90
32334;DHT22;18810;53.040;8.850;2022-09-27T15:03:27;12.00;99.90
32334;DHT22;18810;53.040;8.850;2022-09-27T15:05:55;12.00;99.90
32334;DHT22;18810;53.040;8.850;2022-09-27T15:08:23;12.10;99.90
32334;DHT22;18810;53.040;8.850;2022-09-27T15:10:50;12.10;99.90
32334;DHT22;18810;53.040;8.850;2022-09-27T15:13:17;12.20;99.90
32334;DHT22;18810;53.040;8.850;2022-09-27T15:15:44;12.20;99.90
32334;DHT22;18810;53.040;8.850;2022-09-27T15:18:40;12.20;99.90
32334;DHT22;18810;53.040;8.850;2022-09-27T15:21:09;12.20;99.90
32334;DHT22;18810;53.040;8.850;2022-09-27T15:23:41;12.40;99.90
32334;DHT22;18810;53.040;8.850;2022-09-27T15:26:11;12.60;99.90
32334;DHT22;18810;53.040;8.850;2022-09-27T15:28:50;12.60;99.90
32334;DHT22;18810;53.040;8.850;2022-09-27T15:31:32;13.00;99.90
32334;DHT22;18810;53.040;8.850;2022-09-27T15:34:00;13.40;99.90
32334;DHT22;18810;53.040;8.850;2022-09-27T15:36:56;13.60;99.90
32334;DHT22;18810;53.040;8.850;2022-09-27T15:39:40;13.70;99.90
32334;DHT22;18810;53.040;8.850;2022-09-27T15:44:50;13.80;99.90
32334;DHT22;18810;53.040;8.850;2022-09-27T15:52:47;13.80;99.90
32334;DHT22;18810;53.040;8.850;2022-09-27T15:55:21;13.60;99.90
32334;DHT22;18810;53.040;8.850;2022-09-27T15:58:04;13.60;99.90
32334;DHT22;18810;53.040;8.850;2022-09-27T16:00:33;13.30;99.90
32334;DHT22;18810;53.040;8.850;2022-09-27T16:03:00;13.10;99.90
32334;DHT22;18810;53.040;8.850;2022-09-27T16:05:26;13.10;99.90
32334;DHT22;18810;53.040;8.850;2022-09-27T16:07:54;13.10;99.90
32334;DHT22;18810;53.040;8.850;2022-09-27T16:10:22;13.00;99.90
32334;DHT22;18810;53.040;8.850;2022-09-27T16:12:48;12.90;99.90
32334;DHT22;18810;53.040;8.850;2022-09-27T16:15:15;12.70;99.90
32334;DHT22;18810;53.040;8.850;2022-09-27T16:17:41;12.50;99.90
32334;DHT22;18810;53.040;8.850;2022-09-27T16:20:20;12.40;99.90
32334;DHT22;18810;53.040;8.850;2022-09-27T16:22:49;12.40;99.90
32334;DHT22;18810;53.040;8.850;2022-09-27T16:25:16;12.40;99.90
32334;DHT22;18810;53.040;8.850;2022-09-27T16:27:42;12.30;99.90
32334;DHT22;18810;53.040;8.850;2022-09-27T16:30:08;12.20;99.90
32334;DHT22;18810;53.040;8.850;2022-09-27T16:32:42;12.10;99.90
32334;DHT22;18810;53.040;8.850;2022-09-27T16:35:09;12.00;99.90
32334;DHT22;18810;53.040;8.850;2022-09-27T16:37:35;12.00;99.90
32334;DHT22;18810;53.040;8.850;2022-09-27T16:40:02;11.80;99.90
32334;DHT22;18810;53.040;8.850;2022-09-27T16:42:28;11.60;99.90
32334;DHT22;18810;53.040;8.850;2022-09-27T16:44:54;11.40;99.90
32334;DHT22;18810;53.040;8.850;2022-09-27T16:47:20;11.20;99.90
32334;DHT22;18810;53.040;8.850;2022-09-27T16:49:45;11.10;99.90
32334;DHT22;18810;53.040;8.850;2022-09-27T16:52:30;10.90;99.90
32334;DHT22;18810;53.040;8.850;2022-09-27T16:54:57;10.80;99.90
32334;DHT22;18810;53.040;8.850;2022-09-27T16:57:24;10.90;99.90
32334;DHT22;18810;53.040;8.850;2022-09-27T16:59:49;10.80;99.90
32334;DHT22;18810;53.040;8.850;2022-09-27T17:02:15;10.70;99.90
32334;DHT22;18810;53.040;8.850;2022-09-27T17:04:42;10.60;99.90
32334;DHT22;18810;53.040;8.850;2022-09-27T17:07:08;10.50;99.90
32334;DHT22;18810;53.040;8.850;2022-09-27T17:09:34;10.50;99.90
32334;DHT22;18810;53.040;8.850;2022-09-27T17:11:59;10.60;99.90
32334;DHT22;18810;53.040;8.850;2022-09-27T17:14:25;10.60;99.90
32334;DHT22;18810;53.040;8.850;2022-09-27T17:16:52;10.50;99.90
32334;DHT22;18810;53.040;8.850;2022-09-27T17:19:18;10.40;99.90
32334;DHT22;18810;53.040;8.850;2022-09-27T17:21:44;10.40;99.90
32334;DHT22;18810;53.040;8.850;2022-09-27T17:24:10;10.50;99.90
32334;DHT22;18810;53.040;8.850;2022-09-27T17:26:36;10.40;99.90
32334;DHT22;18810;53.040;8.850;2022-09-27T17:29:02;10.40;99.90
32334;DHT22;18810;53.040;8.850;2022-09-27T17:31:29;10.40;99.90
32334;DHT22;18810;53.040;8.850;2022-09-27T17:33:56;10.40;99.90
32334;DHT22;18810;53.040;8.850;2022-09-27T17:36:26;10.30;99.90
32334;DHT22;18810;53.040;8.850;2022-09-27T17:38:52;10.30;99.90
32334;DHT22;18810;53.040;8.850;2022-09-27T17:41:20;10.40;99.90
32334;DHT22;18810;53.040;8.850;2022-09-27T17:43:51;10.40;99.90
32334;DHT22;18810;53.040;8.850;2022-09-27T17:46:25;10.40;99.90
32334;DHT22;18810;53.040;8.850;2022-09-27T17:48:51;10.50;99.90
32334;DHT22;18810;53.040;8.850;2022-09-27T17:51:38;10.50;99.90
32334;DHT22;18810;53.040;8.850;2022-09-27T17:54:06;10.50;99.90
32334;DHT22;18810;53.040;8.850;2022-09-27T17:56:35;10.50;99.90
32334;DHT22;18810;53.040;8.850;2022-09-27T17:59:02;10.50;99.90
32334;DHT22;18810;53.040;8.850;2022-09-27T18:01:27;10.40;99.90
32334;DHT22;18810;53.040;8.850;2022-09-27T18:03:55;10.30;99.90
32334;DHT22;18810;53.040;8.850;2022-09-27T18:06:22;10.20;99.90
32334;DHT22;18810;53.040;8.850;2022-09-27T18:08:48;10.20;99.90
32334;DHT22;18810;53.040;8.850;2022-09-27T18:11:16;10.10;99.90
32334;DHT22;18810;53.040;8.850;2022-09-27T18:13:43;10.00;99.90
32334;DHT22;18810;53.040;8.850;2022-09-27T18:16:11;10.00;99.90
32334;DHT22;18810;53.040;8.850;2022-09-27T18:18:39;10.00;99.90
32334;DHT22;18810;53.040;8.850;2022-09-27T18:21:10;9.90;99.90
32334;DHT22;18810;53.040;8.850;2022-09-27T18:23:39;9.90;99.90
32334;DHT22;18810;53.040;8.850;2022-09-27T18:26:05;9.90;99.90
32334;DHT22;18810;53.040;8.850;2022-09-27T18:28:35;9.90;99.90
32334;DHT22;18810;53.040;8.850;2022-09-27T18:31:13;9.90;99.90
32334;DHT22;18810;53.040;8.850;2022-09-27T18:33:39;9.90;99.90
32334;DHT22;18810;53.040;8.850;2022-09-27T18:36:22;9.90;99.90
32334;DHT22;18810;53.040;8.850;2022-09-27T18:38:53;9.80;99.90
32334;DHT22;18810;53.040;8.850;2022-09-27T18:41:20;9.60;99.90
32334;DHT22;18810;53.040;8.850;2022-09-27T18:43:46;9.60;99.90
32334;DHT22;18810;53.040;8.850;2022-09-27T18:46:15;9.50;99.90
32334;DHT22;18810;53.040;8.850;2022-09-27T18:48:41;9.60;99.90
32334;DHT22;18810;53.040;8.850;2022-09-27T18:51:11;9.60;99.90
32334;DHT22;18810;53.040;8.850;2022-09-27T18:53:38;9.50;99.90
32334;DHT22;18810;53.040;8.850;2022-09-27T18:56:05;9.60;99.90